Huntsville, Alabama
Current Conditions -  °F | °C
As of 5:53 AM on Monday 22 Dec 2014 (Local Time) from KHSV Reporting Station
Drizzle Drizzle  
Wind Chill: 50°   Ceiling: 1000
Heat Index: 50°   Visibility: 4mi
Dew Point: 46°   Wind: 7mph
Humidity: 86%   Direction: 110°ESE
Pressure: 29.96"   Gusts: NA
Location:  34.73°N, 86.58°W
Report Text: KHSV 221153Z 11006KT 4SM -DZ BR OVC010 10/08 A2996 RMK AO2 DZB46 SLP144 FIRST P0000 60000 T01000078 10106 20100 58004
Loading
Personal Weather Stations






























Interactive Weather Map New forecast layout! Learn more

10-Day Weather Forecast

Advertisements
Track Severe Weather on mobile